< < Back
Terminal Aerodrome Forecast


Current Version              Previous Versions:   1  2  3  4  5  6  7  8  9  

Terminal Aerodrome Forecast

182
FTUS42 KGSP 240818 AAA
TAFHKY
TAF AMD
KHKY 240818Z 2408/2506 30003KT P6SM SKC
      TEMPO 2410/2412 5SM BR
     FM241200 36003KT P6SM SKC=

Latest METAR

821
SAUS70 KWBC 250300 RRH
MTRHKY
METAR KHKY 250253Z AUTO 00000KT 10SM OVC075 26/18 A3009 RMK AO2 SLP163
T02560178 51011


USA.gov is the U.S. government's official web portal to all federal, state and local government web resources and services.